Strona główna
METAR-TAF:

METAR-TAF

Lotnisko :

Cachimbo, Pará, Brazylia

Szerokość geograficzna: 09-20S, Długość geograficzna: 054-57W, wysokość: 536 m

Aktualna obserwacja pogody

Raport powstał 3 godziny i 0 minut temu, godzina 20:00 UTC
Wiatr 7 kt od wschodnio-południowy wschód
Temperatura 28°C
Wilgotność 66%
Ciśnienie 1012 hPa
Widzialność 10 km lub więcej
Mało chmury na wysokości 2500 ft

METAR: SBCC 172000Z 11007KT 9999 FEW025 28/21 Q1012

czas: 20:00 (23:00 UTC)


TAF: brakujący

Obserwacja i prognoza pogody dla ponad 4000 lotnisk (raport METAR i TAF).

Dostępne stacje oznaczono żółtymi i czerwonymi punktami na mapie.

Najedź kursorem aby zobaczyć nazwę stacji.

Kliknij aby zobaczyć obserwacje i prognozy pogody.

Aby zmienić mapę: kliknij na zielony przycisk z czarnym krzyżykiem, aby powiększyć; na zielony przycisk z myślnikiem, aby pomniejszyć; na zielone strzałki, aby przejść do map sąsiednich.


METAR-TAF: